Eaton, Colorado
Current Conditions -  °F | °C
As of 5:55 PM on Saturday 22 Nov 2014 (Local Time) from KGXY Reporting Station
Clear Clear  
Wind Chill: 39°   Ceiling: Unl
Heat Index: 39°   Visibility: 10mi
Dew Point: 25°   Wind: 0mph
Humidity: 56%   Direction: NA
Pressure: 29.6"   Gusts: NA
Location:  40.53°N, 104.71°W
Report Text: KGXY 230055Z AUTO 00000KT 10SM CLR 04/M04 A2960 RMK AO1
Loading
Personal Weather Stations






























Interactive Weather Map New forecast layout! Learn more

10-Day Weather Forecast

Advertisements
Track Severe Weather on mobile